Time;durP1;ratioP1;P1;durP2;ratioP2;P2;SDS_P1;SDS_P2;PMS_P1;PMS_P2;Temp;Humidity;BMP_temperature;BMP_pressure;BME280_temperature;BME280_humidity;BME280_pressure;Samples;Min_cycle;Max_cycle;Signal;HPM_P1;HPM_P2
2022/02/23 00:00:06;;;;;;;8.10;4.88;;;;;;;;;;4991148;28;20041;-61
2022/02/23 00:02:32;;;;;;;6.35;4.85;;;;;;;;;;4991073;28;20046;-62
2022/02/23 00:04:58;;;;;;;9.60;5.50;;;;;;;;;;4991035;28;20088;-62
2022/02/23 00:07:24;;;;;;;7.60;4.78;;;;;;;;;;4982738;28;20050;-62
2022/02/23 00:09:52;;;;;;;7.07;4.93;;;;;;;;;;4980184;28;20511;-61
2022/02/23 00:12:18;;;;;;;7.35;4.68;;;;;;;;;;4988706;28;20031;-62
2022/02/23 00:14:44;;;;;;;6.53;4.53;;;;;;;;;;4989836;28;20443;-62
2022/02/23 00:17:10;;;;;;;6.95;5.00;;;;;;;;;;4989548;28;20042;-62
2022/02/23 00:19:36;;;;;;;8.25;4.75;;;;;;;;;;4991002;28;20149;-61
2022/02/23 00:22:02;;;;;;;8.30;4.63;;;;;;;;;;4990433;28;20027;-62
2022/02/23 00:24:28;;;;;;;8.18;4.60;;;;;;;;;;4991561;28;20030;-61
2022/02/23 00:26:54;;;;;;;11.82;4.43;;;;;;;;;;4989842;28;20629;-61
2022/02/23 00:29:20;;;;;;;6.07;5.00;;;;;;;;;;4990534;28;20034;-61
2022/02/23 00:31:46;;;;;;;9.80;4.65;;;;;;;;;;4987775;28;20059;-61
2022/02/23 00:34:12;;;;;;;12.03;4.70;;;;;;;;;;4990998;28;20030;-61
2022/02/23 00:36:39;;;;;;;9.40;5.40;;;;;;;;;;4988699;28;20034;-62
2022/02/23 00:39:05;;;;;;;8.27;5.78;;;;;;;;;;4987945;28;20031;-62
2022/02/23 00:41:31;;;;;;;8.32;4.50;;;;;;;;;;4978473;28;20041;-62
2022/02/23 00:43:57;;;;;;;7.45;5.70;;;;;;;;;;4982633;28;20110;-61
2022/02/23 00:46:23;;;;;;;6.70;4.82;;;;;;;;;;4988668;28;20939;-61
2022/02/23 00:48:49;;;;;;;8.25;4.55;;;;;;;;;;4990911;28;20048;-61
2022/02/23 00:51:15;;;;;;;6.25;4.95;;;;;;;;;;4988129;28;20039;-61
2022/02/23 00:53:41;;;;;;;8.05;5.50;;;;;;;;;;4971969;28;20064;-61
2022/02/23 00:56:07;;;;;;;7.35;5.07;;;;;;;;;;4979268;28;20109;-61
2022/02/23 00:58:33;;;;;;;6.23;5.13;;;;;;;;;;4990703;28;20396;-61
2022/02/23 01:00:59;;;;;;;6.90;4.67;;;;;;;;;;4989977;28;20034;-61
2022/02/23 01:03:25;;;;;;;7.47;5.00;;;;;;;;;;4989223;28;20030;-61
2022/02/23 01:05:51;;;;;;;6.27;4.83;;;;;;;;;;4990641;28;20125;-61
2022/02/23 01:08:17;;;;;;;6.22;5.63;;;;;;;;;;4981729;28;20111;-61
2022/02/23 01:10:43;;;;;;;8.30;5.33;;;;;;;;;;4988297;28;20041;-61
2022/02/23 01:13:10;;;;;;;10.00;5.27;;;;;;;;;;4984002;28;20575;-61
2022/02/23 01:15:36;;;;;;;8.17;5.70;;;;;;;;;;4987523;28;20030;-61
2022/02/23 01:18:02;;;;;;;8.60;5.50;;;;;;;;;;4989664;28;20030;-61
2022/02/23 01:20:28;;;;;;;7.73;5.17;;;;;;;;;;4990254;28;20035;-61
2022/02/23 01:22:59;;;;;;;9.23;6.20;;;;;;;;;;4989481;28;20026;-61
2022/02/23 01:25:26;;;;;;;8.00;5.57;;;;;;;;;;4989628;28;20033;-62
2022/02/23 01:27:52;;;;;;;8.47;6.07;;;;;;;;;;4985249;28;20026;-61
2022/02/23 01:30:18;;;;;;;6.87;5.83;;;;;;;;;;4989368;28;20122;-61
2022/02/23 01:32:44;;;;;;;8.27;6.23;;;;;;;;;;4987411;28;20037;-61
2022/02/23 01:35:11;;;;;;;8.00;6.53;;;;;;;;;;4987814;28;20041;-61
2022/02/23 01:37:37;;;;;;;7.50;5.80;;;;;;;;;;4984471;28;20038;-61
2022/02/23 01:40:03;;;;;;;7.47;5.87;;;;;;;;;;4989133;28;20030;-61
2022/02/23 01:42:29;;;;;;;8.50;5.80;;;;;;;;;;4979743;28;20031;-61
2022/02/23 01:44:55;;;;;;;8.57;6.43;;;;;;;;;;4979558;28;20029;-62
2022/02/23 01:47:21;;;;;;;9.37;5.93;;;;;;;;;;4983328;28;20384;-61
2022/02/23 01:49:47;;;;;;;8.53;6.10;;;;;;;;;;4988438;28;20035;-62
2022/02/23 01:52:13;;;;;;;7.93;5.77;;;;;;;;;;4977924;28;20031;-62
2022/02/23 01:54:39;;;;;;;11.30;6.70;;;;;;;;;;4989916;28;20480;-62
2022/02/23 01:57:06;;;;;;;8.00;5.93;;;;;;;;;;4984051;28;20076;-62
2022/02/23 01:59:32;;;;;;;9.17;6.67;;;;;;;;;;4989924;28;20384;-62
2022/02/23 02:01:58;;;;;;;10.93;6.70;;;;;;;;;;4983563;28;20059;-62
2022/02/23 02:04:25;;;;;;;8.63;6.00;;;;;;;;;;4974533;28;20081;-62
2022/02/23 02:06:51;;;;;;;11.73;6.30;;;;;;;;;;4988960;28;20470;-61
2022/02/23 02:09:18;;;;;;;11.10;6.57;;;;;;;;;;4982678;28;20033;-62
2022/02/23 02:11:44;;;;;;;9.10;6.20;;;;;;;;;;4986524;28;20047;-62
2022/02/23 02:14:10;;;;;;;9.50;5.73;;;;;;;;;;4990265;28;20087;-62
2022/02/23 02:16:37;;;;;;;10.07;6.13;;;;;;;;;;4989141;28;20038;-63
2022/02/23 02:19:04;;;;;;;10.87;6.37;;;;;;;;;;4985130;28;20027;-62
2022/02/23 02:21:50;;;;;;;9.20;6.20;;;;;;;;;;4988695;28;20387;-62
2022/02/23 02:24:16;;;;;;;10.63;6.80;;;;;;;;;;4999513;28;20027;-62
2022/02/23 02:26:42;;;;;;;12.00;5.90;;;;;;;;;;4973137;28;20384;-62
2022/02/23 02:29:08;;;;;;;9.80;6.03;;;;;;;;;;4990152;28;20025;-62
2022/02/23 02:31:34;;;;;;;8.97;6.43;;;;;;;;;;4988878;28;20040;-62
2022/02/23 02:34:00;;;;;;;11.40;6.00;;;;;;;;;;4992120;28;20077;-62
2022/02/23 02:36:26;;;;;;;8.30;6.13;;;;;;;;;;4991966;28;20029;-62
2022/02/23 02:38:52;;;;;;;10.30;6.93;;;;;;;;;;4987303;28;20022;-62
2022/02/23 02:41:18;;;;;;;9.33;6.03;;;;;;;;;;4989574;28;20065;-62
2022/02/23 02:43:44;;;;;;;9.07;6.70;;;;;;;;;;4976344;28;20139;-62
2022/02/23 02:46:10;;;;;;;7.07;5.80;;;;;;;;;;4989429;28;20131;-63
2022/02/23 02:48:36;;;;;;;9.23;5.97;;;;;;;;;;4992632;28;20067;-62
2022/02/23 02:51:02;;;;;;;10.67;5.83;;;;;;;;;;4993291;28;20472;-62
2022/02/23 02:53:28;;;;;;;10.13;6.63;;;;;;;;;;4992535;28;20142;-61
2022/02/23 02:55:54;;;;;;;8.80;6.43;;;;;;;;;;4993194;28;20022;-62
2022/02/23 02:58:20;;;;;;;10.77;6.83;;;;;;;;;;4980658;28;20034;-62
2022/02/23 03:00:46;;;;;;;8.17;5.87;;;;;;;;;;4973980;28;20487;-61
2022/02/23 03:03:12;;;;;;;11.33;6.83;;;;;;;;;;4985053;28;20034;-61
2022/02/23 03:05:38;;;;;;;10.40;7.00;;;;;;;;;;4993190;28;20510;-60
2022/02/23 03:08:04;;;;;;;6.80;5.60;;;;;;;;;;4992440;28;20041;-61
2022/02/23 03:10:30;;;;;;;7.20;5.83;;;;;;;;;;4993454;28;20121;-61
2022/02/23 03:12:56;;;;;;;7.47;5.87;;;;;;;;;;4984485;28;20045;-61
2022/02/23 03:15:31;;;;;;;8.87;6.20;;;;;;;;;;4990168;28;20392;-61
2022/02/23 03:17:57;;;;;;;;;;;;;;;;;;4991179;28;20407;-61
2022/02/23 03:20:23;;;;;;;10.60;6.83;;;;;;;;;;4993079;28;20012;-62
2022/02/23 03:22:49;;;;;;;10.67;6.37;;;;;;;;;;4992125;28;20022;-61
2022/02/23 03:25:15;;;;;;;10.10;7.10;;;;;;;;;;4992782;28;20027;-62
2022/02/23 03:27:41;;;;;;;8.97;6.80;;;;;;;;;;4992109;28;20027;-61
2022/02/23 03:30:07;;;;;;;11.50;6.80;;;;;;;;;;4992987;28;20186;-61
2022/02/23 03:32:33;;;;;;;11.03;6.40;;;;;;;;;;4985280;28;20026;-61
2022/02/23 03:35:00;;;;;;;9.07;6.07;;;;;;;;;;4991579;28;20042;-61
2022/02/23 03:37:25;;;;;;;9.17;6.77;;;;;;;;;;4991542;28;20031;-60
2022/02/23 03:39:52;;;;;;;9.47;6.90;;;;;;;;;;4992575;28;20107;-61
2022/02/23 03:42:18;;;;;;;8.90;6.63;;;;;;;;;;4991939;28;20468;-61
2022/02/23 03:44:44;;;;;;;9.60;6.47;;;;;;;;;;4991973;28;20045;-61
2022/02/23 03:47:11;;;;;;;9.43;7.33;;;;;;;;;;4990273;28;20019;-61
2022/02/23 03:49:37;;;;;;;11.60;7.23;;;;;;;;;;4972940;28;20039;-61
2022/02/23 03:52:03;;;;;;;11.23;7.47;;;;;;;;;;4972952;28;20117;-60
2022/02/23 03:54:29;;;;;;;11.43;7.43;;;;;;;;;;4972726;28;20108;-62
2022/02/23 03:56:55;;;;;;;8.60;6.37;;;;;;;;;;4986754;28;20058;-62
2022/02/23 03:59:21;;;;;;;10.37;7.20;;;;;;;;;;4974223;28;20044;-62
2022/02/23 04:01:47;;;;;;;12.20;7.93;;;;;;;;;;4986194;28;20054;-60
2022/02/23 04:04:14;;;;;;;11.90;7.87;;;;;;;;;;4991025;28;20057;-61
2022/02/23 04:06:40;;;;;;;12.73;7.30;;;;;;;;;;4992409;28;20425;-61
2022/02/23 04:09:07;;;;;;;10.50;7.30;;;;;;;;;;4989960;28;20030;-60
2022/02/23 04:11:34;;;;;;;12.77;7.77;;;;;;;;;;4990813;28;20038;-61
2022/02/23 04:14:00;;;;;;;9.97;7.70;;;;;;;;;;4977190;28;20027;-61
2022/02/23 04:16:26;;;;;;;11.07;7.70;;;;;;;;;;4972592;28;20081;-60
2022/02/23 04:18:53;;;;;;;12.00;7.37;;;;;;;;;;4972337;28;20034;-60
2022/02/23 04:21:19;;;;;;;9.30;7.10;;;;;;;;;;4972922;28;20027;-61
2022/02/23 04:23:45;;;;;;;11.10;6.97;;;;;;;;;;4972370;28;20030;-61
2022/02/23 04:26:12;;;;;;;13.50;8.00;;;;;;;;;;4972719;28;20026;-61
2022/02/23 04:28:38;;;;;;;12.60;7.93;;;;;;;;;;4982429;28;20034;-61
2022/02/23 04:31:04;;;;;;;12.30;7.43;;;;;;;;;;4989827;28;20035;-61
2022/02/23 04:33:31;;;;;;;11.57;8.30;;;;;;;;;;4990891;28;20034;-60
2022/02/23 04:35:57;;;;;;;12.37;8.40;;;;;;;;;;4990651;28;20030;-60
2022/02/23 04:38:23;;;;;;;13.83;8.30;;;;;;;;;;4975344;28;20027;-61
2022/02/23 04:40:50;;;;;;;14.07;8.30;;;;;;;;;;4972689;28;20031;-60
2022/02/23 04:43:16;;;;;;;10.47;7.40;;;;;;;;;;4977681;28;20481;-60
2022/02/23 04:45:42;;;;;;;13.40;7.73;;;;;;;;;;4991637;28;20023;-61
2022/02/23 04:48:08;;;;;;;14.87;8.47;;;;;;;;;;4990736;28;20054;-61
2022/02/23 04:50:35;;;;;;;10.90;7.83;;;;;;;;;;4991498;28;20164;-61
2022/02/23 04:53:01;;;;;;;14.30;8.03;;;;;;;;;;4990794;28;20079;-61
2022/02/23 04:55:27;;;;;;;10.13;7.57;;;;;;;;;;4990492;28;20030;-61
2022/02/23 04:57:53;;;;;;;11.93;7.97;;;;;;;;;;4987212;28;20041;-61
2022/02/23 05:00:19;;;;;;;10.93;7.13;;;;;;;;;;4971805;28;20551;-61
2022/02/23 05:02:45;;;;;;;12.17;8.03;;;;;;;;;;4973889;28;20134;-61
2022/02/23 05:05:11;;;;;;;13.60;8.40;;;;;;;;;;4991060;28;20125;-61
2022/02/23 05:07:37;;;;;;;12.70;8.00;;;;;;;;;;4988007;28;20484;-61
2022/02/23 05:10:04;;;;;;;11.63;7.77;;;;;;;;;;4971946;28;20042;-60
2022/02/23 05:12:31;;;;;;;12.20;8.13;;;;;;;;;;4971378;28;20027;-60
2022/02/23 05:14:57;;;;;;;17.00;8.97;;;;;;;;;;4990110;28;20060;-61
2022/02/23 05:17:23;;;;;;;13.23;8.67;;;;;;;;;;4989906;28;20030;-61
2022/02/23 05:19:50;;;;;;;12.53;7.67;;;;;;;;;;4981345;28;20027;-61
2022/02/23 05:22:16;;;;;;;12.03;8.27;;;;;;;;;;4989606;28;20027;-61
2022/02/23 05:24:42;;;;;;;11.43;8.40;;;;;;;;;;4988831;28;20445;-61
2022/02/23 05:27:09;;;;;;;11.47;8.03;;;;;;;;;;4990684;28;20031;-61
2022/02/23 05:29:34;;;;;;;12.33;7.90;;;;;;;;;;4986259;28;20035;-62
2022/02/23 05:32:01;;;;;;;10.93;7.20;;;;;;;;;;4987363;28;20061;-62
2022/02/23 05:34:27;;;;;;;11.50;7.37;;;;;;;;;;4982385;28;20054;-61
2022/02/23 05:36:53;;;;;;;12.37;6.80;;;;;;;;;;4972391;28;20034;-61
2022/02/23 05:39:21;;;;;;;11.63;7.67;;;;;;;;;;4971281;28;20053;-61
2022/02/23 05:41:47;;;;;;;11.23;7.37;;;;;;;;;;4973098;28;20077;-61
2022/02/23 05:44:13;;;;;;;11.70;7.60;;;;;;;;;;4971132;28;20427;-61
2022/02/23 05:46:39;;;;;;;12.40;7.63;;;;;;;;;;4986458;28;20037;-61
2022/02/23 05:49:05;;;;;;;13.07;7.73;;;;;;;;;;4990814;28;20462;-61
2022/02/23 05:51:33;;;;;;;11.37;7.77;;;;;;;;;;4989613;28;20042;-62
2022/02/23 05:53:59;;;;;;;12.70;8.07;;;;;;;;;;4990965;28;20053;-61
2022/02/23 05:56:26;;;;;;;10.33;7.27;;;;;;;;;;4989958;28;20030;-61
2022/02/23 05:58:52;;;;;;;13.30;7.43;;;;;;;;;;4990628;28;20022;-61
2022/02/23 06:01:18;;;;;;;13.87;7.87;;;;;;;;;;4988735;28;20561;-62
2022/02/23 06:03:44;;;;;;;10.77;8.10;;;;;;;;;;4970912;28;20046;-62
2022/02/23 06:06:11;;;;;;;11.30;7.63;;;;;;;;;;4970813;28;20503;-61
2022/02/23 06:08:37;;;;;;;10.97;7.10;;;;;;;;;;4974055;28;20138;-62
2022/02/23 06:11:03;;;;;;;10.43;7.10;;;;;;;;;;4985638;28;20038;-61
2022/02/23 06:13:29;;;;;;;10.77;7.50;;;;;;;;;;4974898;28;20054;-61
2022/02/23 06:15:55;;;;;;;10.07;6.77;;;;;;;;;;4974700;28;20038;-62
2022/02/23 06:18:21;;;;;;;12.37;7.67;;;;;;;;;;4974144;28;20041;-62
2022/02/23 06:20:47;;;;;;;11.33;7.13;;;;;;;;;;4974080;28;20163;-61
2022/02/23 06:23:14;;;;;;;9.33;6.87;;;;;;;;;;4989601;28;20116;-61
2022/02/23 06:25:40;;;;;;;13.27;7.53;;;;;;;;;;4983007;28;20568;-61
2022/02/23 06:28:06;;;;;;;11.00;7.00;;;;;;;;;;4979857;28;20050;-61
2022/02/23 06:30:32;;;;;;;11.23;7.30;;;;;;;;;;4985161;28;20073;-61
2022/02/23 06:32:58;;;;;;;10.07;7.23;;;;;;;;;;4977915;28;20043;-61
2022/02/23 06:35:24;;;;;;;11.60;7.47;;;;;;;;;;4989764;28;20033;-61
2022/02/23 06:37:51;;;;;;;12.73;7.13;;;;;;;;;;4986438;28;20054;-61
2022/02/23 06:40:17;;;;;;;11.07;7.00;;;;;;;;;;4985503;28;20030;-61
2022/02/23 06:42:43;;;;;;;12.33;7.37;;;;;;;;;;4990027;28;20038;-61
2022/02/23 06:45:09;;;;;;;13.57;7.60;;;;;;;;;;4979609;28;20026;-61
2022/02/23 06:47:35;;;;;;;12.77;7.23;;;;;;;;;;4982361;28;20480;-61
2022/02/23 06:50:01;;;;;;;12.60;7.13;;;;;;;;;;4992289;28;20543;-61
2022/02/23 06:52:32;;;;;;;12.30;8.03;;;;;;;;;;4992134;28;20121;-61
2022/02/23 06:54:58;;;;;;;10.43;7.20;;;;;;;;;;4992084;28;20061;-61
2022/02/23 06:57:24;;;;;;;11.90;7.33;;;;;;;;;;4984261;28;20045;-62
2022/02/23 06:59:52;;;;;;;11.57;8.40;;;;;;;;;;4976954;28;20035;-61
2022/02/23 07:02:18;;;;;;;18.50;10.83;;;;;;;;;;4989188;28;20456;-61
2022/02/23 07:04:44;;;;;;;14.53;9.83;;;;;;;;;;4992878;28;20141;-62
2022/02/23 07:07:10;;;;;;;12.60;8.63;;;;;;;;;;4985083;28;20026;-62
2022/02/23 07:09:36;;;;;;;16.13;9.07;;;;;;;;;;4978688;28;20065;-62
2022/02/23 07:12:03;;;;;;;18.77;12.67;;;;;;;;;;4986705;28;20039;-62
2022/02/23 07:14:29;;;;;;;16.23;10.70;;;;;;;;;;4984271;28;20102;-61
2022/02/23 07:16:55;;;;;;;18.43;8.90;;;;;;;;;;4978732;28;20072;-62
2022/02/23 07:19:21;;;;;;;18.47;9.27;;;;;;;;;;4981782;28;20488;-62
2022/02/23 07:21:50;;;;;;;18.03;9.13;;;;;;;;;;4976002;28;20046;-62
2022/02/23 07:24:18;;;;;;;10.73;8.43;;;;;;;;;;4992482;28;20507;-62
2022/02/23 07:26:44;;;;;;;15.40;7.47;;;;;;;;;;4990688;28;20069;-62
2022/02/23 07:29:11;;;;;;;10.43;6.97;;;;;;;;;;4992278;28;20030;-62
2022/02/23 07:31:37;;;;;;;12.77;7.20;;;;;;;;;;4990777;28;20030;-62
2022/02/23 07:34:05;;;;;;;10.93;6.53;;;;;;;;;;4989764;28;20023;-62
2022/02/23 07:36:31;;;;;;;11.17;7.27;;;;;;;;;;4991565;28;20068;-61
2022/02/23 07:38:57;;;;;;;10.87;7.00;;;;;;;;;;4991918;28;20113;-61
2022/02/23 07:41:25;;;;;;;13.53;7.70;;;;;;;;;;4993619;28;20391;-61
2022/02/23 07:43:51;;;;;;;9.90;6.63;;;;;;;;;;4996555;28;20034;-62
2022/02/23 07:46:18;;;;;;;10.80;6.40;;;;;;;;;;4991928;28;20034;-62
2022/02/23 07:48:46;;;;;;;9.83;6.47;;;;;;;;;;4990191;28;20034;-62
2022/02/23 07:51:13;;;;;;;9.07;6.63;;;;;;;;;;4992285;28;20034;-62
2022/02/23 07:53:39;;;;;;;10.73;6.80;;;;;;;;;;4991143;28;20393;-62
2022/02/23 07:56:05;;;;;;;8.97;6.40;;;;;;;;;;4990588;28;20034;-62
2022/02/23 07:58:31;;;;;;;9.33;5.80;;;;;;;;;;4976580;28;20043;-62
2022/02/23 08:00:57;;;;;;;11.53;6.63;;;;;;;;;;4986965;28;20061;-62
2022/02/23 08:03:24;;;;;;;8.50;6.50;;;;;;;;;;4978966;28;20498;-62
2022/02/23 08:05:51;;;;;;;12.77;7.43;;;;;;;;;;4977269;28;20034;-62
2022/02/23 08:08:19;;;;;;;12.70;6.20;;;;;;;;;;4977058;28;20151;-62
2022/02/23 08:10:45;;;;;;;21.30;6.97;;;;;;;;;;4972375;28;20561;-62
2022/02/23 08:13:11;;;;;;;11.00;6.50;;;;;;;;;;4984066;28;20035;-62
2022/02/23 08:21:11;;;;;;;9.25;6.03;;;;;;;;;;4991469;28;20242;-61
2022/02/23 08:23:38;;;;;;;10.10;6.93;;;;;;;;;;4988914;28;20155;-60
2022/02/23 08:26:04;;;;;;;13.37;6.40;;;;;;;;;;4990588;28;20058;-60
2022/02/23 08:28:30;;;;;;;10.43;7.23;;;;;;;;;;4990209;28;20039;-61
2022/02/23 08:30:56;;;;;;;10.47;6.13;;;;;;;;;;4989801;28;20463;-62
2022/02/23 08:33:22;;;;;;;14.20;7.40;;;;;;;;;;4990125;28;20033;-61
2022/02/23 08:35:48;;;;;;;15.57;7.43;;;;;;;;;;4986291;28;20395;-60
2022/02/23 08:38:15;;;;;;;14.97;7.70;;;;;;;;;;4989377;28;20022;-61
2022/02/23 08:40:42;;;;;;;17.90;7.03;;;;;;;;;;4988803;28;20037;-61
2022/02/23 08:43:08;;;;;;;10.50;6.53;;;;;;;;;;4977477;28;20034;-61
2022/02/23 08:45:34;;;;;;;10.97;7.00;;;;;;;;;;4991416;28;20106;-61
2022/02/23 08:48:01;;;;;;;12.10;7.10;;;;;;;;;;4985002;28;20031;-61
2022/02/23 08:50:28;;;;;;;11.80;6.70;;;;;;;;;;4976515;28;20053;-61
2022/02/23 08:52:54;;;;;;;11.43;7.27;;;;;;;;;;4969891;28;20030;-61
2022/02/23 08:55:20;;;;;;;10.43;6.43;;;;;;;;;;4985915;28;20414;-61
2022/02/23 08:57:46;;;;;;;11.03;6.07;;;;;;;;;;4988198;28;20045;-61
2022/02/23 09:00:12;;;;;;;10.33;5.77;;;;;;;;;;4984880;28;20027;-61
2022/02/23 09:02:38;;;;;;;7.73;5.73;;;;;;;;;;4978465;28;20034;-61
2022/02/23 09:05:04;;;;;;;8.87;6.20;;;;;;;;;;4970822;28;20584;-60
2022/02/23 09:07:31;;;;;;;13.60;10.20;;;;;;;;;;4971227;28;20099;-61
2022/02/23 09:09:57;;;;;;;24.30;12.80;;;;;;;;;;4971024;28;20122;-61
2022/02/23 09:12:24;;;;;;;14.57;6.83;;;;;;;;;;4971196;28;20027;-61
2022/02/23 09:14:53;;;;;;;8.03;5.30;;;;;;;;;;4973374;28;20026;-61
2022/02/23 09:17:19;;;;;;;10.20;5.67;;;;;;;;;;4969976;28;20165;-61
2022/02/23 09:19:45;;;;;;;10.53;7.77;;;;;;;;;;4970994;28;20035;-62
2022/02/23 09:22:11;;;;;;;13.10;7.00;;;;;;;;;;4971071;28;20385;-61
2022/02/23 09:24:37;;;;;;;9.67;7.97;;;;;;;;;;4971686;28;20057;-61
2022/02/23 09:27:03;;;;;;;8.20;6.10;;;;;;;;;;4990613;28;20022;-61
2022/02/23 09:29:33;;;;;;;8.67;5.80;;;;;;;;;;4982793;28;20096;-61
2022/02/23 09:32:00;;;;;;;6.37;5.40;;;;;;;;;;4970974;28;20443;-61
2022/02/23 09:34:26;;;;;;;9.60;5.90;;;;;;;;;;4974025;28;20031;-62
2022/02/23 09:36:52;;;;;;;8.67;5.77;;;;;;;;;;4970585;28;20397;-61
2022/02/23 09:39:19;;;;;;;7.30;5.73;;;;;;;;;;4975242;28;20088;-61
2022/02/23 09:41:46;;;;;;;7.10;5.37;;;;;;;;;;4972127;28;20019;-61
2022/02/23 09:44:17;;;;;;;7.47;5.30;;;;;;;;;;4974516;28;20034;-61
2022/02/23 09:46:44;;;;;;;11.77;7.27;;;;;;;;;;4974515;28;20102;-61
2022/02/23 09:49:11;;;;;;;8.70;6.63;;;;;;;;;;4978190;28;20030;-61
2022/02/23 09:51:37;;;;;;;9.00;7.13;;;;;;;;;;4994123;28;20038;-60
2022/02/23 09:54:03;;;;;;;12.70;6.93;;;;;;;;;;4982705;28;20038;-60
2022/02/23 09:56:32;;;;;;;13.07;7.27;;;;;;;;;;4992868;28;20064;-61
2022/02/23 09:58:58;;;;;;;11.10;7.30;;;;;;;;;;4992453;28;20046;-61
2022/02/23 10:01:24;;;;;;;8.30;5.87;;;;;;;;;;4985267;28;20392;-61
2022/02/23 10:03:51;;;;;;;9.43;6.33;;;;;;;;;;4992423;28;20046;-61
2022/02/23 10:06:21;;;;;;;12.40;6.70;;;;;;;;;;4992658;28;20041;-61
2022/02/23 10:08:47;;;;;;;7.17;6.27;;;;;;;;;;4993881;28;20023;-61
2022/02/23 10:11:18;;;;;;;9.77;6.30;;;;;;;;;;4990642;28;20054;-61
2022/02/23 10:13:51;;;;;;;9.90;6.30;;;;;;;;;;4993685;28;20022;-61
2022/02/23 10:16:17;;;;;;;9.50;6.17;;;;;;;;;;4988110;28;20041;-61
2022/02/23 10:18:43;;;;;;;11.57;7.00;;;;;;;;;;4989582;28;20052;-62
2022/02/23 10:21:09;;;;;;;11.05;7.10;;;;;;;;;;4992535;28;20054;-61
2022/02/23 10:23:35;;;;;;;9.90;6.23;;;;;;;;;;4985372;28;20123;-61
2022/02/23 10:26:02;;;;;;;7.33;6.17;;;;;;;;;;4973895;28;20106;-61
2022/02/23 10:28:32;;;;;;;13.43;8.27;;;;;;;;;;4993218;28;20464;-63
2022/02/23 10:31:06;;;;;;;10.43;7.07;;;;;;;;;;4990658;28;20395;-61
2022/02/23 10:33:42;;;;;;;11.65;6.80;;;;;;;;;;4973180;28;20023;-61
2022/02/23 10:36:16;;;;;;;11.85;7.25;;;;;;;;;;4972298;28;20500;-61
2022/02/23 10:38:43;;;;;;;12.67;8.53;;;;;;;;;;4993498;28;20026;-60
2022/02/23 10:41:10;;;;;;;15.87;9.17;;;;;;;;;;4992281;28;20045;-60
2022/02/23 10:43:39;;;;;;;17.08;9.30;;;;;;;;;;4993202;28;20052;-61
2022/02/23 10:46:05;;;;;;;13.10;9.65;;;;;;;;;;4990338;28;20030;-60
2022/02/23 10:48:33;;;;;;;10.98;7.93;;;;;;;;;;4993248;28;20026;-61
2022/02/23 10:50:59;;;;;;;14.82;6.80;;;;;;;;;;4988070;28;20038;-60
2022/02/23 10:53:29;;;;;;;10.10;7.00;;;;;;;;;;4991666;28;20109;-61
2022/02/23 10:55:56;;;;;;;10.80;6.90;;;;;;;;;;4991860;28;20022;-62
2022/02/23 10:58:25;;;;;;;14.18;7.85;;;;;;;;;;4991935;28;20054;-62
2022/02/23 11:00:54;;;;;;;10.15;7.32;;;;;;;;;;4991800;28;20029;-61
2022/02/23 11:03:20;;;;;;;11.82;6.75;;;;;;;;;;4991661;28;20033;-61
2022/02/23 11:05:47;;;;;;;11.48;8.02;;;;;;;;;;4992961;28;20488;-62
2022/02/23 11:08:21;;;;;;;11.23;7.15;;;;;;;;;;4991527;28;20083;-62
2022/02/23 11:11:25;;;;;;;9.10;7.03;;;;;;;;;;4973902;28;20175;-62
2022/02/23 11:13:52;;;;;;;10.93;8.15;;;;;;;;;;4973937;28;20035;-62
2022/02/23 11:16:19;;;;;;;8.85;7.22;;;;;;;;;;4982129;28;20030;-62
2022/02/23 11:18:47;;;;;;;9.00;6.80;;;;;;;;;;4990403;28;20041;-62
2022/02/23 11:21:14;;;;;;;8.90;7.10;;;;;;;;;;4992740;28;20015;-61
2022/02/23 11:23:42;;;;;;;8.60;6.70;;;;;;;;;;4988682;28;20487;-62
2022/02/23 11:26:09;;;;;;;11.27;7.43;;;;;;;;;;4990869;28;20043;-61
2022/02/23 11:28:36;;;;;;;11.80;8.10;;;;;;;;;;4991422;28;20061;-62
2022/02/23 11:31:02;;;;;;;12.07;7.45;;;;;;;;;;4992426;28;20034;-62
2022/02/23 11:33:46;;;;;;;12.95;8.65;;;;;;;;;;4991269;28;20075;-61
2022/02/23 11:36:19;;;;;;;11.27;7.68;;;;;;;;;;4991147;28;20033;-61
2022/02/23 11:38:48;;;;;;;11.00;9.13;;;;;;;;;;4992429;28;20034;-61
2022/02/23 11:41:25;;;;;;;10.77;8.32;;;;;;;;;;4992526;28;20026;-61
2022/02/23 11:44:01;;;;;;;13.35;9.57;;;;;;;;;;4992310;28;20034;-61
2022/02/23 11:46:27;;;;;;;11.95;9.40;;;;;;;;;;4992201;28;20499;-61
2022/02/23 11:48:57;;;;;;;12.05;8.43;;;;;;;;;;4973731;28;20125;-61
2022/02/23 11:51:23;;;;;;;12.35;9.30;;;;;;;;;;4971594;28;20392;-62
2022/02/23 11:53:50;;;;;;;12.45;8.70;;;;;;;;;;4988926;28;20105;-61
2022/02/23 11:56:17;;;;;;;13.05;10.02;;;;;;;;;;4992212;28;20026;-61
2022/02/23 11:58:47;;;;;;;11.90;9.30;;;;;;;;;;4991306;28;20031;-61
2022/02/23 12:01:13;;;;;;;12.30;9.05;;;;;;;;;;4992192;28;20072;-62
2022/02/23 12:03:44;;;;;;;13.10;9.70;;;;;;;;;;4991207;28;20051;-61
2022/02/23 12:06:10;;;;;;;14.13;10.00;;;;;;;;;;4972762;28;20045;-61
2022/02/23 12:08:42;;;;;;;13.45;8.90;;;;;;;;;;4986553;28;20033;-61
2022/02/23 12:11:08;;;;;;;13.55;10.13;;;;;;;;;;4983155;28;20030;-61
2022/02/23 12:13:39;;;;;;;14.63;11.05;;;;;;;;;;4978977;28;20477;-62
2022/02/23 12:16:24;;;;;;;15.40;11.43;;;;;;;;;;4973532;28;20027;-61
2022/02/23 12:19:00;;;;;;;13.90;10.82;;;;;;;;;;4989755;28;20030;-62
2022/02/23 12:21:49;;;;;;;13.32;10.43;;;;;;;;;;4991957;28;20034;-62
2022/02/23 12:24:17;;;;;;;12.15;10.18;;;;;;;;;;4986285;28;20468;-61
2022/02/23 12:26:43;;;;;;;11.82;10.50;;;;;;;;;;4990503;28;20476;-61
2022/02/23 12:29:11;;;;;;;13.07;11.73;;;;;;;;;;4990719;28;20042;-61
2022/02/23 12:31:39;;;;;;;13.95;10.85;;;;;;;;;;4989174;28;20054;-61
2022/02/23 12:34:10;;;;;;;13.40;11.35;;;;;;;;;;4990237;28;20518;-61
2022/02/23 12:36:36;;;;;;;11.13;9.32;;;;;;;;;;4990449;28;20036;-61
2022/02/23 12:39:03;;;;;;;11.48;9.73;;;;;;;;;;4990617;28;20109;-61
2022/02/23 12:41:30;;;;;;;12.88;9.85;;;;;;;;;;4991465;28;20083;-62
2022/02/23 12:43:58;;;;;;;10.93;9.05;;;;;;;;;;4990283;28;20414;-62
2022/02/23 12:46:24;;;;;;;16.00;9.63;;;;;;;;;;4991511;28;20465;-62
2022/02/23 12:48:50;;;;;;;16.15;10.77;;;;;;;;;;4974465;28;20035;-62
2022/02/23 12:51:19;;;;;;;13.70;10.38;;;;;;;;;;4971929;28;20053;-62
2022/02/23 12:53:46;;;;;;;12.40;10.85;;;;;;;;;;4985626;28;20031;-62
2022/02/23 12:56:19;;;;;;;14.70;10.13;;;;;;;;;;4991570;28;20037;-62
2022/02/23 12:58:51;;;;;;;11.27;10.10;;;;;;;;;;4990219;28;20045;-62
2022/02/23 13:01:26;;;;;;;19.08;10.43;;;;;;;;;;4980585;28;20498;-61
2022/02/23 13:06:57;;;;;;;12.93;9.35;;;;;;;;;;4971628;28;20038;-61
2022/02/23 13:09:25;;;;;;;13.73;9.85;;;;;;;;;;4971701;28;20027;-61
2022/02/23 13:11:55;;;;;;;12.15;9.63;;;;;;;;;;4970386;28;20031;-61
2022/02/23 13:14:23;;;;;;;14.00;9.80;;;;;;;;;;4989422;28;20496;-61
2022/02/23 13:16:53;;;;;;;14.00;10.65;;;;;;;;;;4988741;28;20050;-61
2022/02/23 13:19:21;;;;;;;13.43;9.55;;;;;;;;;;4989482;28;20062;-60
2022/02/23 13:21:53;;;;;;;13.75;9.77;;;;;;;;;;4989413;28;20030;-61
2022/02/23 13:24:39;;;;;;;14.00;9.35;;;;;;;;;;4971962;28;20026;-61
2022/02/23 13:27:08;;;;;;;10.70;9.25;;;;;;;;;;4970959;28;20503;-60
2022/02/23 13:29:34;;;;;;;11.02;9.18;;;;;;;;;;4983347;28;20042;-61
2022/02/23 13:32:02;;;;;;;14.23;8.98;;;;;;;;;;4989694;28;20038;-61
2022/02/23 13:34:29;;;;;;;11.85;8.93;;;;;;;;;;4985632;28;20027;-61
2022/02/23 13:36:56;;;;;;;15.40;9.57;;;;;;;;;;4971411;28;20092;-61
2022/02/23 13:39:24;;;;;;;13.50;9.80;;;;;;;;;;4988088;28;20549;-61
2022/02/23 13:41:50;;;;;;;14.43;9.43;;;;;;;;;;4989404;28;20031;-62
2022/02/23 13:44:35;;;;;;;13.00;8.52;;;;;;;;;;4989559;28;20450;-62
2022/02/23 13:47:04;;;;;;;11.52;9.02;;;;;;;;;;4984152;28;20062;-61
2022/02/23 13:49:31;;;;;;;14.20;9.93;;;;;;;;;;4989136;28;20048;-61
2022/02/23 13:51:58;;;;;;;14.02;9.02;;;;;;;;;;4990482;28;20038;-61
2022/02/23 13:54:24;;;;;;;11.52;9.60;;;;;;;;;;4971968;28;20077;-61
2022/02/23 13:56:50;;;;;;;11.45;9.57;;;;;;;;;;4970977;28;20038;-61
2022/02/23 13:59:17;;;;;;;14.13;9.93;;;;;;;;;;4999427;28;20042;-60
2022/02/23 14:02:01;;;;;;;13.85;9.07;;;;;;;;;;5009825;28;20086;-60
2022/02/23 14:04:41;;;;;;;12.25;10.15;;;;;;;;;;4990775;28;20595;-61
2022/02/23 14:07:08;;;;;;;11.77;9.10;;;;;;;;;;4990693;28;20430;-61
2022/02/23 14:09:41;;;;;;;15.90;10.20;;;;;;;;;;4988845;28;20026;-61
2022/02/23 14:12:13;;;;;;;13.23;9.68;;;;;;;;;;4990019;28;20054;-61
2022/02/23 14:14:42;;;;;;;16.35;10.50;;;;;;;;;;4974185;28;20100;-61
2022/02/23 14:17:20;;;;;;;13.63;9.35;;;;;;;;;;4970862;28;20058;-61
2022/02/23 14:19:46;;;;;;;11.27;9.80;;;;;;;;;;4988541;28;20026;-61
2022/02/23 14:22:21;;;;;;;13.15;10.32;;;;;;;;;;4989171;28;20057;-61
2022/02/23 14:25:17;;;;;;;13.10;9.68;;;;;;;;;;4975289;28;20033;-61
2022/02/23 14:27:44;;;;;;;16.20;11.05;;;;;;;;;;4980926;28;20046;-61
2022/02/23 14:30:21;;;;;;;11.80;9.82;;;;;;;;;;4993344;28;20102;-61
2022/02/23 14:32:47;;;;;;;14.25;9.73;;;;;;;;;;4975115;28;20047;-62
2022/02/23 14:35:15;;;;;;;11.15;9.25;;;;;;;;;;4993295;28;20031;-62
2022/02/23 14:37:45;;;;;;;9.18;8.27;;;;;;;;;;4992517;28;20022;-62
2022/02/23 14:40:14;;;;;;;12.57;8.77;;;;;;;;;;5004632;28;20476;-62
2022/02/23 14:42:40;;;;;;;20.20;9.07;;;;;;;;;;5011052;28;20468;-62